Time;durP1;ratioP1;P1;durP2;ratioP2;P2;SDS_P1;SDS_P2;PMS_P1;PMS_P2;Temp;Humidity;BMP_temperature;BMP_pressure;BME280_temperature;BME280_humidity;BME280_pressure;Samples;Min_cycle;Max_cycle;Signal;HPM_P1;HPM_P2
2022/04/16 00:02:00;;;;;;;7.00;4.65;;;17.70;71.10;;;;;;4973735;28;20042;-87
2022/04/16 00:04:27;;;;;;;5.82;4.80;;;17.70;71.50;;;;;;4973241;28;20041;-87
2022/04/16 00:06:54;;;;;;;7.00;4.47;;;17.60;70.90;;;;;;4974175;28;20030;-86
2022/04/16 00:09:20;;;;;;;5.97;4.50;;;17.60;71.30;;;;;;4973578;28;20105;-87
2022/04/16 00:11:45;;;;;;;6.85;4.80;;;17.50;70.70;;;;;;4976416;28;20110;-88
2022/04/16 00:14:12;;;;;;;5.43;4.47;;;17.50;71.00;;;;;;4973306;28;20455;-88
2022/04/16 00:16:38;;;;;;;6.75;4.47;;;17.60;71.10;;;;;;4973979;28;20029;-87
2022/04/16 00:19:04;;;;;;;8.85;5.88;;;17.60;70.70;;;;;;4973298;28;20106;-88
2022/04/16 00:21:30;;;;;;;7.13;5.45;;;17.50;69.30;;;;;;4970470;28;20110;-88
2022/04/16 00:23:57;;;;;;;5.68;4.85;;;17.30;69.60;;;;;;4973066;28;20035;-87
2022/04/16 00:26:23;;;;;;;9.57;5.18;;;17.30;70.20;;;;;;4973034;28;20490;-86
2022/04/16 00:28:50;;;;;;;6.80;5.28;;;17.30;70.30;;;;;;4973488;28;20031;-86
2022/04/16 00:31:15;;;;;;;7.18;4.97;;;17.30;70.70;;;;;;4974228;28;20027;-85
2022/04/16 00:33:41;;;;;;;6.75;4.75;;;17.30;70.20;;;;;;4974389;28;20074;-84
2022/04/16 00:36:07;;;;;;;5.90;5.05;;;17.30;70.40;;;;;;4985500;28;20019;-84
2022/04/16 00:38:33;;;;;;;7.18;5.30;;;17.40;70.40;;;;;;4976712;28;20031;-85
2022/04/16 00:41:02;;;;;;;5.35;4.82;;;17.40;70.40;;;;;;4974533;28;20042;-85
2022/04/16 00:43:29;;;;;;;6.30;5.30;;;17.40;70.10;;;;;;4974460;28;20113;-86
2022/04/16 00:45:56;;;;;;;5.75;4.57;;;17.50;69.60;;;;;;4973693;28;20075;-86
2022/04/16 00:48:23;;;;;;;5.75;4.82;;;17.40;68.80;;;;;;4973707;28;20482;-86
2022/04/16 00:50:51;;;;;;;5.57;4.97;;;17.30;68.90;;;;;;4974354;28;20352;-86
2022/04/16 00:53:16;;;;;;;6.50;5.00;;;17.30;69.20;;;;;;4974681;28;20031;-86
2022/04/16 00:55:42;;;;;;;5.72;4.72;;;17.40;69.10;;;;;;4977739;28;20122;-86
2022/04/16 00:58:08;;;;;;;7.13;6.10;;;17.30;68.90;;;;;;4973644;28;20106;-86
2022/04/16 01:00:34;;;;;;;7.90;5.72;;;17.30;68.80;;;;;;4973788;28;20105;-86
2022/04/16 01:03:00;;;;;;;6.40;5.40;;;17.30;68.90;;;;;;4981004;28;20038;-85
2022/04/16 01:05:26;;;;;;;6.65;5.93;;;17.30;68.90;;;;;;4975860;28;20113;-86
2022/04/16 01:07:58;;;;;;;8.18;5.55;;;17.30;68.80;;;;;;4973813;28;20430;-87
2022/04/16 01:10:26;;;;;;;7.70;6.18;;;17.40;68.90;;;;;;4966083;28;20082;-86
2022/04/16 01:12:53;;;;;;;7.13;5.93;;;17.40;68.90;;;;;;4974023;28;20027;-87
2022/04/16 01:15:20;;;;;;;7.10;6.30;;;17.40;68.90;;;;;;4972676;28;20118;-87
2022/04/16 01:17:47;;;;;;;8.52;6.25;;;17.40;68.90;;;;;;4973826;28;20022;-87
2022/04/16 01:20:14;;;;;;;9.70;6.68;;;17.40;69.00;;;;;;4979724;28;20704;-87
2022/04/16 01:22:40;;;;;;;7.68;6.10;;;17.40;69.00;;;;;;4974407;28;20039;-87
2022/04/16 01:25:07;;;;;;;9.80;6.70;;;17.40;68.90;;;;;;4965196;28;20494;-87
2022/04/16 01:27:35;;;;;;;8.68;7.25;;;17.40;68.70;;;;;;4966386;28;20015;-84
2022/04/16 01:30:04;;;;;;;11.98;7.30;;;17.40;68.70;;;;;;4977277;28;20023;-85
2022/04/16 01:32:32;;;;;;;8.82;7.18;;;17.40;68.30;;;;;;4974973;28;20023;-85
2022/04/16 01:35:00;;;;;;;10.35;7.70;;;17.40;68.20;;;;;;4978088;28;20022;-87
2022/04/16 01:37:31;;;;;;;10.25;7.40;;;17.40;68.20;;;;;;4977828;28;20101;-88
2022/04/16 01:39:58;;;;;;;8.82;7.30;;;17.40;68.30;;;;;;4979955;28;20025;-87
2022/04/16 01:42:24;;;;;;;10.25;7.60;;;17.40;68.40;;;;;;4982688;28;20035;-88
2022/04/16 01:44:51;;;;;;;9.32;8.02;;;17.40;68.50;;;;;;4979351;28;20046;-89
2022/04/16 01:47:17;;;;;;;10.80;8.30;;;17.40;68.30;;;;;;4981289;28;20026;-87
2022/04/16 01:49:43;;;;;;;9.00;7.57;;;17.30;68.10;;;;;;4978235;28;20034;-87
2022/04/16 01:52:09;;;;;;;15.80;11.02;;;17.30;66.80;;;;;;4982448;28;20038;-88
2022/04/16 01:54:35;;;;;;;12.60;9.70;;;16.90;65.60;;;;;;4988298;28;20093;-89
2022/04/16 01:57:01;;;;;;;9.20;7.50;;;16.70;67.30;;;;;;4979014;28;20062;-89
2022/04/16 01:59:29;;;;;;;11.18;8.32;;;16.60;68.10;;;;;;4976781;28;20096;-84
2022/04/16 02:01:56;;;;;;;10.25;7.45;;;16.50;68.60;;;;;;4976841;28;20030;-85
2022/04/16 02:04:22;;;;;;;11.75;8.50;;;16.40;68.70;;;;;;4979383;28;20114;-87
2022/04/16 02:06:50;;;;;;;10.57;8.80;;;16.30;68.90;;;;;;4973383;28;20062;-88
2022/04/16 02:09:16;;;;;;;9.93;7.72;;;16.40;68.90;;;;;;4974453;28;20498;-85
2022/04/16 02:11:43;;;;;;;9.13;7.05;;;16.50;68.60;;;;;;4977829;28;20022;-88
2022/04/16 02:14:09;;;;;;;8.77;7.30;;;16.60;68.70;;;;;;4979004;28;20095;-89
2022/04/16 02:16:34;;;;;;;8.23;7.07;;;16.70;68.70;;;;;;4985945;28;20038;-90
2022/04/16 02:19:00;;;;;;;10.43;7.95;;;16.80;68.70;;;;;;4980767;28;20045;-90
2022/04/16 02:21:27;;;;;;;12.25;7.75;;;16.70;67.70;;;;;;4976537;28;20050;-89
2022/04/16 02:23:54;;;;;;;11.55;7.75;;;16.70;68.10;;;;;;4976472;28;20031;-87
2022/04/16 02:26:20;;;;;;;8.98;7.25;;;16.60;68.00;;;;;;4975148;28;20027;-87
2022/04/16 02:28:49;;;;;;;11.13;8.00;;;16.60;67.90;;;;;;4970117;28;20031;-87
2022/04/16 02:31:14;;;;;;;10.30;8.05;;;16.60;68.10;;;;;;4975060;28;20079;-88
2022/04/16 02:33:41;;;;;;;9.32;7.97;;;16.50;68.30;;;;;;4975974;28;20043;-88
2022/04/16 02:36:07;;;;;;;12.10;8.57;;;16.50;68.40;;;;;;4975525;28;20039;-89
2022/04/16 02:38:33;;;;;;;10.95;8.50;;;16.40;69.00;;;;;;4972812;28;20046;-89
2022/04/16 02:40:59;;;;;;;11.68;9.30;;;16.30;69.10;;;;;;4975255;28;20035;-89
2022/04/16 02:43:25;;;;;;;10.57;8.25;;;16.10;69.30;;;;;;4975625;28;20034;-88
2022/04/16 02:48:35;;;;;;;11.25;9.10;;;16.00;69.20;;;;;;4975802;28;20444;-87
2022/04/16 02:51:02;;;;;;;9.95;8.15;;;16.00;69.20;;;;;;4976099;28;20110;-87
2022/04/16 02:53:28;;;;;;;19.50;11.07;;;15.90;69.40;;;;;;4976971;28;20479;-87
2022/04/16 02:55:56;;;;;;;12.60;10.32;;;15.80;69.70;;;;;;4975786;28;20041;-84
2022/04/16 02:58:22;;;;;;;10.77;9.35;;;15.60;70.40;;;;;;4975420;28;20034;-85
2022/04/16 03:00:48;;;;;;;14.15;8.90;;;15.60;70.50;;;;;;4976469;28;20027;-87
2022/04/16 03:03:15;;;;;;;13.05;11.32;;;15.50;70.70;;;;;;4976068;28;20391;-87
2022/04/16 03:05:41;;;;;;;11.25;8.70;;;15.40;71.00;;;;;;4975129;28;20030;-86
2022/04/16 03:08:09;;;;;;;15.57;10.13;;;15.30;71.10;;;;;;4975999;28;20019;-86
2022/04/16 03:10:35;;;;;;;8.40;7.57;;;15.40;71.00;;;;;;4971419;28;20447;-87
2022/04/16 03:13:04;;;;;;;14.50;8.82;;;15.40;70.90;;;;;;4975664;28;20022;-85
2022/04/16 03:18:14;;;;;;;10.27;8.60;;;15.40;70.90;;;;;;4976383;28;20064;-88
2022/04/16 03:20:42;;;;;;;10.70;8.15;;;15.40;71.00;;;;;;4975061;28;20463;-87
2022/04/16 03:23:09;;;;;;;10.50;9.02;;;15.50;70.80;;;;;;4972155;28;20023;-87
2022/04/16 03:25:37;;;;;;;10.55;8.80;;;15.40;71.40;;;;;;4974521;28;20395;-87
2022/04/16 03:28:03;;;;;;;13.57;9.10;;;15.40;71.70;;;;;;4973376;28;20035;-88
2022/04/16 03:30:29;;;;;;;13.82;10.93;;;15.30;72.10;;;;;;4974305;28;20512;-87
2022/04/16 03:32:55;;;;;;;13.73;10.68;;;15.30;72.50;;;;;;4974905;28;20030;-88
2022/04/16 03:35:22;;;;;;;11.05;9.18;;;15.30;72.60;;;;;;4974613;28;20052;-88
2022/04/16 03:37:48;;;;;;;15.57;11.55;;;15.30;72.00;;;;;;4976421;28;20019;-89
2022/04/16 03:40:14;;;;;;;12.98;9.80;;;15.30;73.40;;;;;;4976554;28;20438;-89
2022/04/16 03:42:52;;;;;;;12.35;9.55;;;15.30;72.70;;;;;;4976277;28;20383;-89
2022/04/16 03:45:21;;;;;;;11.52;9.65;;;15.40;72.90;;;;;;4972582;28;20087;-84
2022/04/16 03:47:48;;;;;;;13.65;10.55;;;15.40;72.60;;;;;;4979753;28;20022;-86
2022/04/16 03:50:14;;;;;;;11.00;9.18;;;15.30;73.00;;;;;;4974757;28;20038;-85
2022/04/16 03:52:43;;;;;;;12.57;10.82;;;15.30;73.10;;;;;;4977687;28;20030;-85
2022/04/16 04:00:46;;;;;;;13.10;11.45;;;15.40;73.80;;;;;;4972759;28;20066;-84
2022/04/16 04:03:13;;;;;;;16.48;12.85;;;15.30;74.20;;;;;;4972519;28;20092;-84
2022/04/16 04:05:39;;;;;;;10.20;8.82;;;15.20;74.90;;;;;;4972301;28;20069;-82
2022/04/16 04:08:06;;;;;;;11.68;9.40;;;15.30;74.70;;;;;;4973513;28;20029;-84
2022/04/16 04:10:32;;;;;;;9.85;8.63;;;15.40;73.90;;;;;;4974627;28;20027;-85
2022/04/16 04:12:58;;;;;;;16.52;12.32;;;15.50;73.90;;;;;;4982151;28;20080;-86
2022/04/16 04:15:24;;;;;;;12.77;10.63;;;15.50;74.00;;;;;;4986548;28;20403;-86
2022/04/16 04:17:50;;;;;;;10.75;8.93;;;15.40;74.50;;;;;;4973521;28;20050;-85
2022/04/16 04:20:16;;;;;;;11.38;10.18;;;15.40;74.10;;;;;;4974359;28;20035;-88
2022/04/16 04:22:42;;;;;;;11.23;9.60;;;15.40;74.90;;;;;;4975203;28;20027;-87
2022/04/16 04:25:08;;;;;;;10.45;8.40;;;15.50;74.80;;;;;;4973045;28;20563;-85
2022/04/16 04:27:33;;;;;;;9.13;8.05;;;15.60;73.70;;;;;;4974681;28;20042;-86
2022/04/16 04:30:02;;;;;;;8.88;7.97;;;15.80;73.40;;;;;;4975032;28;20033;-87
2022/04/16 04:32:31;;;;;;;8.55;7.65;;;15.90;73.20;;;;;;4981850;28;20078;-83
2022/04/16 04:34:57;;;;;;;10.00;7.18;;;16.00;73.00;;;;;;4972984;28;20046;-83
2022/04/16 04:37:22;;;;;;;11.15;8.30;;;16.10;73.00;;;;;;4973118;28;20034;-86
2022/04/16 04:39:49;;;;;;;10.50;7.85;;;16.10;72.70;;;;;;4974617;28;20118;-87
2022/04/16 04:42:32;;;;;;;9.60;7.35;;;16.10;72.70;;;;;;4974670;28;20023;-86
2022/04/16 04:44:59;;;;;;;10.68;7.15;;;16.00;73.00;;;;;;4970908;28;20039;-87
2022/04/16 04:47:25;;;;;;;7.82;6.65;;;16.00;72.70;;;;;;4974047;28;20090;-85
2022/04/16 04:49:51;;;;;;;12.40;6.70;;;16.10;72.70;;;;;;4973919;28;20207;-85
2022/04/16 04:52:26;;;;;;;8.63;7.07;;;16.20;72.50;;;;;;4970836;28;20121;-85
2022/04/16 04:54:53;;;;;;;8.48;6.82;;;16.20;72.50;;;;;;4974263;28;20416;-86
2022/04/16 04:57:18;;;;;;;15.70;8.88;;;16.20;72.20;;;;;;4973447;28;20036;-85
2022/04/16 04:59:44;;;;;;;12.05;8.02;;;16.10;72.80;;;;;;4974116;28;20064;-88
2022/04/16 05:02:10;;;;;;;12.93;7.90;;;16.20;72.80;;;;;;4973733;28;20062;-87
2022/04/16 05:04:36;;;;;;;10.52;7.47;;;16.20;72.20;;;;;;4981816;28;20045;-88
2022/04/16 05:07:03;;;;;;;7.95;6.40;;;16.30;72.50;;;;;;4978516;28;20023;-90
2022/04/16 05:09:29;;;;;;;10.57;8.30;;;16.20;72.60;;;;;;4978335;28;20023;-87
2022/04/16 05:11:56;;;;;;;9.35;7.03;;;16.20;73.10;;;;;;4976966;28;20031;-84
2022/04/16 05:14:25;;;;;;;9.85;6.75;;;16.20;72.60;;;;;;4977432;28;20479;-85
2022/04/16 05:16:51;;;;;;;9.63;6.18;;;16.20;72.70;;;;;;4986543;28;20403;-84
2022/04/16 05:19:17;;;;;;;6.85;5.93;;;16.30;72.70;;;;;;4975773;28;20019;-84
2022/04/16 05:21:43;;;;;;;6.75;6.05;;;16.30;72.40;;;;;;4975786;28;20031;-85
2022/04/16 05:24:10;;;;;;;9.05;6.35;;;16.40;72.30;;;;;;4975488;28;20038;-83
2022/04/16 05:26:37;;;;;;;7.35;6.28;;;16.40;72.60;;;;;;4976825;28;20111;-83
2022/04/16 05:29:03;;;;;;;7.13;5.75;;;16.40;72.60;;;;;;4973289;28;20023;-83
2022/04/16 05:31:30;;;;;;;8.20;6.38;;;16.50;72.50;;;;;;4975137;28;20030;-83
2022/04/16 05:36:40;;;;;;;6.97;5.30;;;16.60;72.10;;;;;;4974463;28;20038;-83
2022/04/16 05:39:05;;;;;;;7.68;5.97;;;16.60;72.00;;;;;;4974391;28;20384;-83
2022/04/16 05:41:34;;;;;;;5.60;4.90;;;16.60;72.00;;;;;;4975738;28;20038;-83
2022/04/16 05:44:06;;;;;;;6.15;4.90;;;16.70;72.10;;;;;;4972817;28;20045;-82
2022/04/16 05:46:32;;;;;;;6.80;5.47;;;16.70;72.00;;;;;;4972404;28;20411;-82
2022/04/16 05:48:58;;;;;;;6.88;5.40;;;16.70;72.00;;;;;;4997972;23;20058;-80
2022/04/16 05:51:25;;;;;;;5.95;4.63;;;16.70;72.10;;;;;;5026173;28;20037;-81
2022/04/16 05:53:52;;;;;;;6.95;5.60;;;16.70;71.90;;;;;;5025801;28;20030;-82
2022/04/16 05:56:19;;;;;;;6.65;5.10;;;16.80;72.00;;;;;;5020184;28;20030;-77
2022/04/16 05:58:45;;;;;;;7.85;4.80;;;16.80;72.10;;;;;;5023711;28;20026;-79
2022/04/16 06:01:12;;;;;;;11.10;5.20;;;16.80;71.80;;;;;;5021883;28;20041;-81
2022/04/16 06:03:39;;;;;;;5.88;4.25;;;16.90;72.40;;;;;;5028913;28;20025;-80
2022/04/16 06:06:09;;;;;;;7.30;4.55;;;17.00;72.00;;;;;;5020048;28;20029;-79
2022/04/16 06:08:35;;;;;;;6.30;4.68;;;16.90;72.20;;;;;;5019234;28;20491;-80
2022/04/16 06:11:01;;;;;;;7.72;5.25;;;17.00;72.40;;;;;;5018771;28;20125;-82
2022/04/16 06:13:27;;;;;;;7.00;4.38;;;17.10;72.50;;;;;;5023987;28;20104;-86
2022/04/16 06:15:52;;;;;;;4.88;3.90;;;17.10;71.90;;;;;;5021586;28;20057;-85
2022/04/16 06:18:18;;;;;;;6.75;4.63;;;17.20;71.90;;;;;;5018921;28;20096;-83
2022/04/16 06:20:44;;;;;;;5.45;4.38;;;17.10;72.40;;;;;;5028630;28;20421;-86
2022/04/16 06:23:09;;;;;;;5.45;3.85;;;17.20;71.90;;;;;;5015113;28;20101;-85
2022/04/16 06:25:35;;;;;;;6.00;4.03;;;17.20;72.30;;;;;;5018742;28;20029;-83
2022/04/16 06:28:02;;;;;;;5.93;4.07;;;17.20;72.50;;;;;;5026671;28;20108;-83
2022/04/16 06:30:27;;;;;;;8.48;4.15;;;17.30;72.50;;;;;;5032083;28;20071;-82
2022/04/16 06:32:53;;;;;;;10.65;5.13;;;17.30;72.90;;;;;;5022511;28;20022;-83
2022/04/16 06:35:19;;;;;;;5.97;3.92;;;17.40;73.30;;;;;;5023925;28;20068;-83
2022/04/16 06:37:44;;;;;;;5.32;4.38;;;17.40;72.60;;;;;;5015459;28;20033;-83
2022/04/16 06:40:11;;;;;;;4.05;3.65;;;17.50;72.80;;;;;;5019347;28;20481;-83
2022/04/16 06:42:38;;;;;;;6.72;4.75;;;17.50;72.50;;;;;;5033136;28;20477;-83
2022/04/16 06:45:08;;;;;;;6.20;5.22;;;17.60;72.90;;;;;;5021449;28;20536;-83
2022/04/16 06:47:34;;;;;;;;;;;17.70;73.40;;;;;;5019452;28;20547;-83
2022/04/16 06:50:00;;;;;;;4.63;4.00;;;17.70;73.40;;;;;;5027606;28;19917;-82
2022/04/16 06:52:25;;;;;;;5.72;3.80;;;17.80;72.60;;;;;;5028907;28;20073;-83
2022/04/16 06:54:51;;;;;;;7.68;5.38;;;17.80;72.50;;;;;;5019393;28;20112;-82
2022/04/16 06:57:17;;;;;;;8.13;5.22;;;17.90;73.20;;;;;;5017689;28;20090;-82
2022/04/16 06:59:43;;;;;;;5.53;3.88;;;17.90;73.00;;;;;;5022538;28;20045;-83
2022/04/16 07:02:10;;;;;;;4.60;3.35;;;18.00;72.50;;;;;;5024531;28;20034;-81
2022/04/16 07:04:36;;;;;;;5.45;4.22;;;18.10;72.30;;;;;;5020825;28;20025;-81
2022/04/16 07:07:03;;;;;;;9.10;4.18;;;18.20;72.30;;;;;;5020033;28;20034;-81
2022/04/16 07:09:28;;;;;;;6.60;4.22;;;18.20;72.10;;;;;;5030089;28;20021;-81
2022/04/16 07:11:54;;;;;;;9.55;5.28;;;18.30;72.30;;;;;;5025967;28;20017;-81
2022/04/16 07:14:21;;;;;;;7.13;5.45;;;18.30;72.20;;;;;;5030286;28;20037;-82
2022/04/16 07:16:47;;;;;;;4.95;3.60;;;18.40;72.40;;;;;;5016584;28;20034;-82
2022/04/16 07:19:13;;;;;;;5.55;3.80;;;18.50;71.90;;;;;;5022500;28;20108;-81
2022/04/16 07:21:40;;;;;;;4.82;3.95;;;18.60;71.60;;;;;;5014579;28;20156;-82
2022/04/16 07:24:05;;;;;;;5.07;3.85;;;18.70;71.20;;;;;;5015469;28;20026;-83
2022/04/16 07:26:31;;;;;;;6.32;3.40;;;18.80;71.60;;;;;;5019438;28;20093;-82
2022/04/16 07:28:57;;;;;;;6.78;3.83;;;18.90;71.10;;;;;;5014542;28;20032;-82
2022/04/16 07:31:22;;;;;;;4.90;3.78;;;19.00;70.80;;;;;;5011214;28;20033;-82
2022/04/16 07:33:48;;;;;;;6.82;4.30;;;19.10;70.10;;;;;;5020900;28;20221;-82
2022/04/16 07:36:14;;;;;;;4.63;3.20;;;19.10;68.50;;;;;;5020263;28;20044;-82
2022/04/16 07:38:43;;;;;;;4.68;2.97;;;19.20;68.90;;;;;;5021710;28;20094;-81
2022/04/16 07:41:09;;;;;;;4.38;3.10;;;19.20;67.90;;;;;;5017732;28;20029;-81
2022/04/16 07:43:35;;;;;;;4.30;2.60;;;19.20;67.90;;;;;;5029101;28;20030;-82
2022/04/16 07:46:00;;;;;;;5.20;3.13;;;19.30;67.50;;;;;;5027612;28;20359;-81
2022/04/16 07:48:26;;;;;;;3.88;2.25;;;19.20;65.60;;;;;;5019974;28;20033;-81
2022/04/16 07:50:51;;;;;;;5.00;2.50;;;19.20;65.80;;;;;;5012367;28;20045;-82
2022/04/16 07:53:17;;;;;;;3.78;2.80;;;19.30;66.10;;;;;;5048280;28;20040;-82
2022/04/16 07:55:43;;;;;;;3.60;2.45;;;19.40;66.00;;;;;;5012822;28;20030;-81
2022/04/16 07:58:08;;;;;;;3.47;2.63;;;19.30;64.10;;;;;;5015413;28;20044;-82
2022/04/16 08:00:34;;;;;;;5.78;2.50;;;19.30;64.70;;;;;;5033089;28;20488;-82
2022/04/16 08:03:00;;;;;;;6.57;2.90;;;19.30;64.40;;;;;;5028884;28;20556;-82
2022/04/16 08:05:25;;;;;;;4.43;3.25;;;19.30;64.20;;;;;;5013485;28;20544;-82
2022/04/16 08:07:51;;;;;;;3.17;2.10;;;19.40;63.50;;;;;;5029457;28;20480;-82
2022/04/16 08:10:17;;;;;;;3.30;2.08;;;19.30;63.80;;;;;;5022824;28;20030;-82
2022/04/16 08:12:42;;;;;;;2.67;2.25;;;19.40;63.90;;;;;;5022737;28;20133;-82
2022/04/16 08:15:11;;;;;;;3.65;2.30;;;19.40;63.50;;;;;;5025348;28;20024;-79
2022/04/16 08:17:54;;;;;;;6.43;3.15;;;19.40;63.70;;;;;;5029417;28;20443;-82
2022/04/16 08:20:20;;;;;;;4.40;2.50;;;19.40;63.20;;;;;;5029317;28;20109;-81
2022/04/16 08:22:46;;;;;;;5.53;2.20;;;19.40;63.60;;;;;;5017976;28;20026;-85
2022/04/16 08:27:48;;;;;;;3.75;2.65;;;19.60;63.80;;;;;;5035613;28;20038;-82
2022/04/16 08:30:15;;;;;;;4.80;2.45;;;19.80;64.00;;;;;;5036669;28;20029;-84
2022/04/16 08:32:42;;;;;;;3.10;2.08;;;20.00;64.10;;;;;;5038393;28;20423;-84
2022/04/16 08:35:13;;;;;;;3.60;2.10;;;20.10;63.80;;;;;;5028431;28;20034;-84
2022/04/16 08:37:40;;;;;;;6.45;2.55;;;20.30;63.60;;;;;;5025309;28;20029;-83
2022/04/16 08:40:07;;;;;;;3.25;2.55;;;20.40;63.50;;;;;;5028606;28;20061;-84
2022/04/16 08:42:35;;;;;;;5.75;2.58;;;20.50;63.00;;;;;;5038335;28;20026;-81
2022/04/16 08:45:02;;;;;;;2.72;2.05;;;20.50;60.50;;;;;;5021071;28;20030;-86
2022/04/16 08:47:31;;;;;;;2.67;2.10;;;20.50;58.90;;;;;;5026207;28;20162;-81
2022/04/16 08:49:58;;;;;;;2.45;1.80;;;20.50;57.50;;;;;;5029445;28;20053;-86
2022/04/16 08:52:29;;;;;;;2.00;1.50;;;20.60;58.60;;;;;;5022054;28;20030;-81
2022/04/16 08:54:56;;;;;;;3.78;2.13;;;20.70;58.60;;;;;;5019959;28;20030;-89
2022/04/16 08:57:22;;;;;;;2.53;1.52;;;20.90;55.50;;;;;;5037307;28;20021;-92
2022/04/16 08:59:50;;;;;;;2.53;1.90;;;21.00;56.10;;;;;;5023719;28;20029;-90
2022/04/16 09:02:16;;;;;;;4.68;1.90;;;21.10;54.90;;;;;;5017487;28;20026;-90
2022/04/16 09:04:42;;;;;;;1.85;1.33;;;21.30;55.30;;;;;;5021448;28;20033;-90
2022/04/16 09:07:07;;;;;;;5.05;2.30;;;21.30;55.70;;;;;;5028323;28;20437;-84
2022/04/16 09:09:34;;;;;;;1.83;1.45;;;21.50;54.00;;;;;;5022317;28;20026;-83
2022/04/16 09:12:00;;;;;;;1.80;1.60;;;21.60;54.60;;;;;;5023017;28;20049;-85
2022/04/16 09:14:36;;;;;;;4.65;2.15;;;21.70;55.10;;;;;;5027137;28;20414;-84
2022/04/16 09:17:02;;;;;;;2.38;1.40;;;21.90;53.50;;;;;;5023689;28;20032;-84
2022/04/16 09:19:29;;;;;;;2.33;1.58;;;22.00;52.90;;;;;;5020493;28;20044;-82
2022/04/16 09:21:55;;;;;;;2.15;1.58;;;22.00;50.90;;;;;;5023765;28;20083;-90
2022/04/16 09:24:21;;;;;;;4.28;2.30;;;22.00;52.00;;;;;;5033080;28;20469;-89
2022/04/16 09:26:49;;;;;;;3.15;1.92;;;22.00;50.70;;;;;;5025648;28;20053;-88
2022/04/16 09:29:16;;;;;;;2.95;1.90;;;22.00;50.50;;;;;;5021442;28;20022;-89
2022/04/16 09:31:45;;;;;;;5.35;1.50;;;22.20;51.90;;;;;;5023535;28;20071;-89
2022/04/16 09:34:20;;;;;;;4.82;2.22;;;22.20;50.90;;;;;;5019476;28;20026;-89
2022/04/16 09:36:47;;;;;;;2.35;1.52;;;22.30;50.40;;;;;;5018641;28;20038;-88
2022/04/16 09:39:13;;;;;;;1.73;1.60;;;22.30;51.10;;;;;;5022933;28;20057;-89
2022/04/16 09:41:41;;;;;;;3.72;1.35;;;22.40;50.40;;;;;;5029264;28;20025;-89
2022/04/16 09:44:18;;;;;;;4.35;1.67;;;22.40;51.00;;;;;;5031861;28;20037;-91
2022/04/16 09:46:46;;;;;;;1.60;1.50;;;22.50;50.60;;;;;;5020145;28;20036;-91
2022/04/16 09:49:13;;;;;;;2.53;1.40;;;22.60;50.20;;;;;;5023041;28;20049;-89
2022/04/16 09:51:42;;;;;;;2.75;1.80;;;22.70;50.70;;;;;;5025381;28;20478;-84
2022/04/16 09:54:09;;;;;;;4.35;1.50;;;22.80;47.10;;;;;;5029719;28;20091;-86
2022/04/16 09:56:36;;;;;;;2.78;1.70;;;22.70;48.60;;;;;;5020845;28;20488;-84
2022/04/16 09:59:09;;;;;;;3.25;1.50;;;22.90;47.90;;;;;;5027510;28;20029;-86
2022/04/16 10:01:39;;;;;;;5.20;2.10;;;22.90;47.30;;;;;;5037369;28;20029;-85
2022/04/16 10:04:06;;;;;;;1.58;1.23;;;23.00;44.80;;;;;;5028192;28;20037;-86
2022/04/16 10:06:32;;;;;;;3.88;1.45;;;23.00;46.90;;;;;;5028607;28;20030;-84
2022/04/16 10:09:13;;;;;;;3.97;1.50;;;23.10;46.60;;;;;;5026392;28;20087;-88
2022/04/16 10:11:42;;;;;;;3.42;1.58;;;23.20;45.00;;;;;;5025531;28;20030;-88
2022/04/16 10:14:18;;;;;;;1.98;1.40;;;23.30;45.10;;;;;;5042665;28;20392;-89
2022/04/16 10:17:20;;;;;;;2.47;1.40;;;23.20;45.20;;;;;;5038321;28;20033;-89
2022/04/16 10:19:47;;;;;;;2.97;1.30;;;23.30;43.20;;;;;;5019408;28;20029;-82
2022/04/16 10:23:05;;;;;;;;;;;;;;;;;;;;;
2022/04/16 10:25:34;;;;;;;;;;;23.30;43.70;;;;;;5016400;28;20032;-84
2022/04/16 10:28:06;;;;;;;3.80;1.45;;;23.40;44.00;;;;;;5018091;28;20372;-85
2022/04/16 10:30:40;;;;;;;2.30;1.00;;;23.50;43.80;;;;;;5021549;28;20076;-84
2022/04/16 10:33:17;;;;;;;2.80;1.27;;;23.60;44.40;;;;;;5020133;28;20111;-85
2022/04/16 10:35:57;;;;;;;2.60;1.48;;;23.70;44.10;;;;;;5024556;28;20034;-78
2022/04/16 10:38:31;;;;;;;1.05;0.95;;;23.90;44.10;;;;;;5038209;28;20034;-77
2022/04/16 10:41:21;;;;;;;2.50;1.38;;;24.10;45.00;;;;;;5036204;28;20037;-79
2022/04/16 10:43:59;;;;;;;3.10;1.55;;;24.30;43.30;;;;;;5040717;28;20044;-79
2022/04/16 10:46:46;;;;;;;2.40;1.30;;;24.40;43.50;;;;;;5033807;28;20521;-79
2022/04/16 10:49:39;;;;;;;4.03;1.75;;;24.50;43.00;;;;;;5032402;28;20534;-82
2022/04/16 10:52:05;;;;;;;3.65;1.27;;;24.50;42.60;;;;;;5019515;28;20041;-80
2022/04/16 10:54:36;;;;;;;2.80;1.38;;;24.50;42.60;;;;;;5018835;28;20026;-80
2022/04/16 10:57:04;;;;;;;2.95;1.58;;;24.60;43.10;;;;;;5017362;28;20037;-81
2022/04/16 10:59:39;;;;;;;1.80;1.38;;;24.70;42.40;;;;;;5027123;28;20017;-80
2022/04/16 11:02:28;;;;;;;1.58;1.40;;;24.70;43.10;;;;;;5019347;28;20045;-81
2022/04/16 11:05:09;;;;;;;5.50;1.70;;;24.80;44.40;;;;;;5019145;28;20379;-80
2022/04/16 11:07:38;;;;;;;3.17;1.55;;;25.00;44.10;;;;;;5020376;28;20053;-80
2022/04/16 11:10:07;;;;;;;3.42;1.30;;;25.00;45.20;;;;;;5017920;28;20429;-80
2022/04/16 11:12:36;;;;;;;2.80;1.45;;;25.20;45.10;;;;;;5017475;28;20030;-80
2022/04/16 11:15:02;;;;;;;2.90;1.60;;;25.40;45.20;;;;;;5028037;28;20179;-80
2022/04/16 11:17:27;;;;;;;2.05;1.35;;;25.50;44.50;;;;;;5029583;28;20022;-80
2022/04/16 11:20:02;;;;;;;2.33;1.42;;;25.60;44.20;;;;;;5026990;28;20039;-81
2022/04/16 11:22:27;;;;;;;4.68;1.60;;;25.70;44.00;;;;;;5019606;28;20061;-81
2022/04/16 11:34:15;;;;;;;2.58;1.27;;;25.70;41.90;;;;;;5020476;28;20064;-78
2022/04/16 11:36:41;;;;;;;5.18;1.50;;;25.90;42.20;;;;;;5030956;28;20040;-77
2022/04/16 11:39:28;;;;;;;1.60;1.40;;;26.50;42.00;;;;;;5038598;28;20018;-77
2022/04/16 11:42:06;;;;;;;2.03;1.20;;;27.30;41.00;;;;;;5022202;28;20398;-77
2022/04/16 11:44:58;;;;;;;2.15;1.25;;;27.90;37.30;;;;;;5032242;28;20029;-78
2022/04/16 11:47:36;;;;;;;1.52;1.20;;;28.40;36.50;;;;;;5025274;28;20045;-78
2022/04/16 11:50:05;;;;;;;2.60;1.30;;;28.90;36.00;;;;;;5032596;28;20049;-77
2022/04/16 11:52:32;;;;;;;1.80;1.17;;;29.30;36.10;;;;;;5027548;28;20025;-76
2022/04/16 11:55:07;;;;;;;2.97;1.27;;;29.40;33.00;;;;;;5037633;28;20060;-77
2022/04/16 11:57:34;;;;;;;2.10;1.40;;;29.40;34.90;;;;;;5037869;28;20033;-78
2022/04/16 12:00:04;;;;;;;1.98;1.20;;;29.60;34.80;;;;;;5034299;28;20386;-79
2022/04/16 12:02:37;;;;;;;2.28;1.23;;;29.90;35.10;;;;;;5038226;28;20033;-78
2022/04/16 12:05:11;;;;;;;4.35;1.60;;;30.00;34.20;;;;;;5030074;28;20044;-78
2022/04/16 12:07:40;;;;;;;1.83;1.30;;;29.90;33.50;;;;;;5035069;28;20440;-78
2022/04/16 12:10:06;;;;;;;2.97;1.48;;;29.90;34.10;;;;;;5038360;28;20025;-77
2022/04/16 12:12:52;;;;;;;4.55;1.20;;;30.10;32.70;;;;;;5037653;28;20036;-78
2022/04/16 12:15:22;;;;;;;1.85;1.10;;;30.10;33.90;;;;;;5022555;28;20516;-80
2022/04/16 12:17:49;;;;;;;1.08;0.90;;;29.80;33.30;;;;;;5032727;22;20185;-79
2022/04/16 12:20:15;;;;;;;4.60;1.30;;;29.10;34.10;;;;;;4973571;28;20154;-78
2022/04/16 12:22:58;;;;;;;7.05;1.42;;;28.60;34.70;;;;;;4975740;28;20117;-79
2022/04/16 12:26:02;;;;;;;2.13;0.93;;;28.30;34.50;;;;;;4973538;28;20680;-79
2022/04/16 12:28:32;;;;;;;5.43;1.00;;;27.70;34.70;;;;;;4971906;28;20065;-79
2022/04/16 12:30:58;;;;;;;1.30;0.80;;;27.30;35.30;;;;;;4972059;28;20098;-79
2022/04/16 12:33:56;;;;;;;2.17;1.13;;;27.10;35.90;;;;;;4978275;28;20590;-79
2022/04/16 12:36:48;;;;;;;1.45;0.80;;;27.00;36.40;;;;;;4968681;28;20057;-80
2022/04/16 12:39:16;;;;;;;1.48;1.20;;;26.60;36.20;;;;;;4967586;28;20046;-78
2022/04/16 12:41:42;;;;;;;1.73;0.90;;;26.30;36.80;;;;;;4969995;28;20471;-77
2022/04/16 12:44:07;;;;;;;2.38;1.10;;;26.10;37.20;;;;;;4972424;28;20042;-77
2022/04/16 12:46:33;;;;;;;1.42;0.80;;;25.70;37.30;;;;;;4971149;28;20039;-77
2022/04/16 12:48:58;;;;;;;1.67;0.80;;;25.50;37.90;;;;;;4971271;28;20042;-78
2022/04/16 12:51:26;;;;;;;3.47;1.15;;;25.20;38.00;;;;;;4971672;28;20035;-79
2022/04/16 12:53:52;;;;;;;2.90;1.63;;;25.00;38.50;;;;;;4972332;28;20031;-78
2022/04/16 12:56:18;;;;;;;2.65;1.40;;;24.80;38.50;;;;;;4972503;28;20173;-79
2022/04/16 12:58:43;;;;;;;2.05;1.15;;;24.60;39.00;;;;;;4972450;28;20035;-77
2022/04/16 13:01:09;;;;;;;2.53;1.10;;;24.40;39.70;;;;;;4972667;28;20031;-78
2022/04/16 13:03:35;;;;;;;3.00;1.15;;;24.20;40.50;;;;;;4974252;28;20063;-78
2022/04/16 13:06:02;;;;;;;3.25;1.20;;;24.10;41.30;;;;;;4970616;28;20071;-78
2022/04/16 13:08:30;;;;;;;1.25;1.00;;;23.80;41.60;;;;;;4975238;28;20033;-78
2022/04/16 13:10:56;;;;;;;2.40;1.60;;;23.70;42.10;;;;;;4973107;28;20046;-78
2022/04/16 13:13:23;;;;;;;3.40;1.50;;;23.50;42.90;;;;;;4973582;28;20126;-78
2022/04/16 13:15:50;;;;;;;1.23;0.90;;;23.30;43.80;;;;;;4973194;28;20071;-78
2022/04/16 13:18:16;;;;;;;2.45;1.00;;;23.10;44.10;;;;;;4971982;28;20388;-78